Latest Weather Observations for Creal Reef

IDQ60801

Issued at 10:02 am EST Thursday 2 April 2015 (issued every 30 minutes, with the page automatically refreshed every 10 minutes)

About weather observations | Map of weather stations | Latest weather observations for QLD | Other Formats
Station Details ID: 200736 Name: CREAL REEF Lat: -20.53 Lon: 150.38 Height: 1.7 m
Data from the previous 72 hours. | See also: Recent months for locations in Queensland
Date/Time
EST
Temp
°C
App
Temp
°C
Dew
Point
Rel
Hum
%
Delta-T
°C
Wind Press
QNH
hPa
Press
MSL
hPa
Rain
since 9 am
mm
Dir
 
Spd
km/h
Gust
km/h
Spd
kts
Gust
kts
02/10:00am 26.0 - - - - SSE 22 26 12 14 1013.6 - -
02/09:30am 25.7 - - - - SE 22 30 12 16 1013.6 - -
02/09:20am 25.5 - - - - ESE 20 - 11 - - 1013.7 -
02/09:00am 26.0 - - - - ESE 20 24 11 13 1013.7 - -
02/08:30am 26.0 - - - - ESE 22 28 12 15 1013.6 - -
02/08:20am 25.9 - - - - ESE 24 - 13 - - 1013.4 -
02/08:00am 25.9 - - - - ESE 24 30 13 16 1013.2 - -
02/07:30am 25.8 - - - - ESE 24 28 13 15 1012.9 - -
02/07:20am 25.8 - - - - ESE 22 - 12 - - 1012.7 -
02/07:00am 25.6 - - - - ESE 22 28 12 15 1012.5 - -
02/06:30am 25.6 - - - - ESE 20 24 11 13 1012.2 - -
02/06:20am 25.6 - - - - ESE 22 - 12 - - 1012.1 -
02/06:00am 25.2 - - - - ESE 20 24 11 13 1012.1 - -
02/05:30am 24.9 - - - - E 28 32 15 17 1011.8 - -
02/05:20am 24.7 - - - - E 26 - 14 - - 1011.7 -
02/05:00am 23.8 - - - - NE 15 26 8 14 1011.5 - -
02/04:30am 25.7 - - - - E 26 33 14 18 1011.3 - -
02/04:20am 25.6 - - - - E 30 - 16 - - 1011.3 -
02/04:00am 25.1 - - - - SE 24 35 13 19 1011.2 - -
02/03:30am 26.0 - - - - E 30 35 16 19 1011.0 - -
02/03:20am 25.9 - - - - E 32 - 17 - - 1010.9 -
02/03:00am 26.0 - - - - ESE 30 33 16 18 1011.1 - -
02/02:30am 25.8 - - - - ESE 30 33 16 18 1011.3 - -
02/02:20am 25.4 - - - - ESE 26 - 14 - - 1011.3 -
02/02:00am 25.4 - - - - SE 33 39 18 21 1011.5 - -
02/01:39am 25.2 - - - - SE 39 44 21 24 1011.7 - -
02/01:30am 26.0 - - - - E 30 33 16 18 1011.7 - -
02/01:20am 25.9 - - - - E 30 - 16 - - 1011.8 -
02/01:00am 26.0 - - - - E 30 35 16 19 1012.2 - -
02/12:30am 26.0 - - - - E 26 30 14 16 1012.6 - -
02/12:20am 26.0 - - - - E 26 - 14 - - 1012.7 -
02/12:00am 26.0 - - - - E 22 28 12 15 1013.0 - -
 
Date/Time
EST
Temp
°C
App
Temp
°C
Dew
Point
Rel
Hum
%
Delta-T
°C
Wind Press
QNH
hPa
Press
MSL
hPa
Rain
since 9 am
mm
Dir
 
Spd
km/h
Gust
km/h
Spd
kts
Gust
kts
01/11:30pm 25.8 - - - - E 24 28 13 15 1013.3 - -
01/11:20pm 25.8 - - - - E 24 - 13 - - 1013.1 -
01/11:00pm 25.7 - - - - E 24 28 13 15 1013.4 - -
01/10:30pm 25.8 - - - - ESE 30 33 16 18 1013.6 - -
01/10:20pm 25.0 - - - - ESE 33 - 18 - - 1013.7 -
01/10:00pm 24.4 - - - - ESE 35 41 19 22 1014.1 - -
01/09:36pm 24.5 - - - - ESE 37 43 20 23 1014.0 - -
01/09:30pm 25.9 - - - - E 24 30 13 16 1014.1 - -
01/09:20pm 25.7 - - - - E 24 - 13 - - 1014.0 -
01/09:00pm 25.2 - - - - E 30 35 16 19 1014.0 - -
01/08:30pm 26.1 - - - - E 26 30 14 16 1013.7 - -
01/08:20pm 26.1 - - - - E 26 - 14 - - 1013.6 -
01/08:00pm 25.9 - - - - E 28 32 15 17 1013.4 - -
01/07:30pm 25.7 - - - - E 24 26 13 14 1013.1 - -
01/07:20pm 25.9 - - - - E 24 - 13 - - 1012.9 -
01/07:00pm 25.8 - - - - E 22 26 12 14 1012.8 - -
01/06:30pm 25.9 - - - - E 24 28 13 15 1012.6 - -
01/06:20pm 26.0 - - - - E 20 - 11 - - 1012.3 -
01/06:00pm 25.9 - - - - E 22 28 12 15 1012.3 - -
01/05:30pm 25.9 - - - - E 22 26 12 14 1012.1 - -
01/05:20pm 25.9 - - - - E 22 - 12 - - 1011.8 -
01/05:00pm 25.7 - - - - ESE 22 24 12 13 1011.8 - -
01/04:30pm 25.6 - - - - ESE 26 30 14 16 1011.5 - -
01/04:20pm 25.6 - - - - ESE 28 - 15 - - 1011.4 -
01/04:00pm 25.9 - - - - E 26 32 14 17 1011.3 - -
01/03:30pm 25.6 - - - - E 22 26 12 14 1011.5 - -
01/03:20pm 25.6 - - - - E 22 - 12 - - 1011.4 -
01/03:00pm 25.4 - - - - ESE 22 26 12 14 1011.5 - -
01/02:30pm 25.5 - - - - ESE 24 28 13 15 1012.0 - -
01/02:20pm 25.4 - - - - ESE 22 - 12 - - 1012.0 -
01/02:00pm 25.7 - - - - ESE 24 28 13 15 1012.3 - -
01/01:30pm 25.9 - - - - SE 24 28 13 15 1012.5 - -
01/01:20pm 25.9 - - - - SE 24 - 13 - - 1012.5 -
01/01:00pm 25.7 - - - - SE 24 28 13 15 1012.9 - -
01/12:30pm 25.3 - - - - ESE 22 26 12 14 1013.6 - -
01/12:20pm 25.2 - - - - ESE 24 - 13 - - 1013.6 -
01/12:00pm 24.2 - - - - ESE 28 32 15 17 1014.0 - -
01/11:30am 23.9 - - - - SE 32 35 17 19 1014.4 - -
01/11:20am 24.8 - - - - ESE 32 - 17 - - 1014.5 -
01/11:00am 24.9 - - - - ESE 35 39 19 21 1014.7 - -
01/10:30am 25.5 - - - - E 30 33 16 18 1015.1 - -
01/10:20am 25.4 - - - - ESE 30 - 16 - - 1015.0 -
01/10:00am 25.1 - - - - SE 33 37 18 20 1015.3 - -
01/09:30am 25.1 - - - - SE 33 37 18 20 1015.2 - -
01/09:20am 24.9 - - - - SE 33 - 18 - - 1015.2 -
01/09:00am 25.0 - - - - ESE 35 39 19 21 1015.2 - -
01/08:30am 25.2 - - - - SE 41 46 22 25 1015.2 - -
01/08:20am 25.3 - - - - SE 41 - 22 - - 1015.1 -
01/08:00am 25.5 - - - - SE 41 46 22 25 1015.1 - -
01/07:30am 25.1 - - - - SE 39 44 21 24 1014.7 - -
01/07:20am 24.6 - - - - SE 33 - 18 - - 1014.5 -
01/07:00am 23.9 - - - - SE 46 57 25 31 1014.5 - -
01/06:30am 24.8 - - - - SE 44 50 24 27 1014.1 - -
01/06:20am 25.2 - - - - SE 44 - 24 - - 1013.7 -
01/06:00am 25.9 - - - - SE 44 52 24 28 1013.6 - -
01/05:42am 25.9 - - - - SE 44 52 24 28 1013.5 - -
01/05:30am 26.1 - - - - ESE 39 44 21 24 1013.4 - -
01/05:20am 25.7 - - - - ESE 41 - 22 - - 1013.3 -
01/05:00am 25.5 - - - - ESE 41 46 22 25 1013.2 - -
01/04:30am 25.2 - - - - SE 39 44 21 24 1013.1 - -
01/04:20am 25.1 - - - - SE 39 - 21 - - 1012.9 -
01/04:00am 25.0 - - - - SE 43 50 23 27 1012.8 - -
01/03:30am 24.8 - - - - SE 43 50 23 27 1013.1 - -
01/03:20am 24.5 - - - - SE 44 - 24 - - 1013.2 -
01/03:00am 24.6 - - - - SE 39 48 21 26 1013.5 - -
01/02:30am 24.2 - - - - SE 39 44 21 24 1013.5 - -
01/02:20am 23.8 - - - - SE 39 - 21 - - 1013.8 -
01/02:00am 24.2 - - - - SE 41 48 22 26 1014.3 - -
01/01:30am 23.8 - - - - SSE 35 46 19 25 1014.7 - -
01/01:20am 23.5 - - - - SSE 39 - 21 - - 1014.8 -
01/01:00am 23.1 - - - - SSE 41 56 22 30 1015.1 - -
01/12:30am 22.6 - - - - SE 43 52 23 28 1015.8 - -
01/12:20am 22.2 - - - - SSE 44 - 24 - - 1015.6 -
01/12:00am 22.7 - - - - SSE 56 70 30 38 1015.5 - -
 
Date/Time
EST
Temp
°C
App
Temp
°C
Dew
Point
Rel
Hum
%
Delta-T
°C
Wind Press
QNH
hPa
Press
MSL
hPa
Rain
since 9 am
mm
Dir
 
Spd
km/h
Gust
km/h
Spd
kts
Gust
kts
31/11:30pm 22.3 - - - - SSE 59 78 32 42 1015.5 - -
31/11:24pm 22.5 - - - - SSE 65 74 35 40 1015.6 - -
31/11:20pm 23.5 - - - - SSE 48 - 26 - - 1015.8 -
31/11:11pm 23.9 - - - - SSE 43 61 23 33 1015.7 - -
31/11:00pm 25.1 - - - - SSE 32 41 17 22 1015.7 - -
31/10:30pm 24.9 - - - - SSE 28 37 15 20 1016.0 - -
31/10:20pm 25.2 - - - - S 28 - 15 - - 1015.8 -
31/10:00pm 26.0 - - - - SSE 22 28 12 15 1016.1 - -
31/09:30pm 25.8 - - - - SE 24 28 13 15 1016.0 - -
31/09:20pm 25.9 - - - - SE 24 - 13 - - 1016.0 -
31/09:00pm 26.3 - - - - SE 22 28 12 15 1016.2 - -
31/08:30pm 26.3 - - - - SE 19 24 10 13 1015.7 - -
31/08:20pm 26.5 - - - - SE 17 - 9 - - 1015.6 -
31/08:00pm 26.2 - - - - ESE 15 19 8 10 1015.6 - -
31/07:30pm 25.9 - - - - ESE 19 24 10 13 1015.4 - -
31/07:20pm 25.9 - - - - ESE 19 - 10 - - 1015.3 -
31/07:00pm 25.7 - - - - E 24 28 13 15 1015.0 - -
31/06:30pm 25.6 - - - - E 30 35 16 19 1014.9 - -
31/06:20pm 25.4 - - - - E 33 - 18 - - 1014.6 -
31/06:00pm 26.5 - - - - ESE 26 32 14 17 1014.6 - -
31/05:30pm 26.5 - - - - SE 28 32 15 17 1014.3 - -
31/05:20pm 26.3 - - - - SE 30 - 16 - - 1014.2 -
31/05:00pm 26.4 - - - - SSE 32 35 17 19 1014.1 - -
31/04:30pm 26.1 - - - - SE 33 39 18 21 1013.8 - -
31/04:20pm 26.2 - - - - SE 35 - 19 - - 1013.6 -
31/04:00pm 26.7 - - - - SSE 28 35 15 19 1013.5 - -
31/03:30pm 27.1 - - - - SSE 24 30 13 16 1013.6 - -
31/03:20pm 27.2 - - - - SSE 22 - 12 - - 1013.5 -
31/03:00pm 27.2 - - - - SSE 22 26 12 14 1013.8 - -
31/02:30pm 27.0 - - - - SE 24 26 13 14 1014.0 - -
31/02:20pm 27.1 - - - - SSE 22 - 12 - - 1014.0 -
31/02:00pm 27.0 - - - - SSE 22 26 12 14 1014.4 - -
31/01:30pm 27.0 - - - - ESE 24 28 13 15 1014.8 - -
31/01:20pm 27.0 - - - - ESE 22 - 12 - - 1014.7 -
31/01:00pm 26.9 - - - - SE 22 28 12 15 1015.1 - -
31/12:30pm 27.0 - - - - ESE 24 28 13 15 1015.8 - -
31/12:20pm 26.9 - - - - ESE 24 - 13 - - 1015.8 -
31/12:00pm 27.0 - - - - ESE 24 33 13 18 1016.2 - -
31/11:30am 27.0 - - - - ESE 26 30 14 16 1016.7 - -
31/11:20am 26.9 - - - - ESE 24 - 13 - - 1016.8 -
31/11:00am 27.1 - - - - E 26 32 14 17 1017.1 - -
31/10:30am 27.0 - - - - E 26 30 14 16 1017.2 - -
31/10:20am 27.0 - - - - E 26 - 14 - - 1017.2 -
31/10:00am 27.1 - - - - ESE 28 32 15 17 1017.4 - -
31/09:30am 27.3 - - - - ESE 30 33 16 18 1017.2 - -
31/09:20am 27.1 - - - - ESE 30 - 16 - - 1017.1 -
31/09:00am 27.2 - - - - ESE 32 39 17 21 1017.3 - -
31/08:30am 27.1 - - - - ESE 33 37 18 20 1017.1 - -
31/08:20am 27.1 - - - - ESE 33 - 18 - - 1017.0 -
31/08:00am 26.8 - - - - ESE 33 41 18 22 1017.0 - -
31/07:30am 26.2 - - - - E 37 46 20 25 1016.6 - -
31/07:20am 26.2 - - - - ESE 35 - 19 - - 1016.3 -
31/07:00am 26.5 - - - - ESE 33 37 18 20 1016.0 - -
31/06:30am 26.7 - - - - ESE 32 35 17 19 1015.8 - -
31/06:20am 26.8 - - - - ESE 32 - 17 - - 1015.6 -
31/06:00am 26.7 - - - - E 32 39 17 21 1015.5 - -
31/05:30am 25.5 - - - - SE 32 43 17 23 1015.4 - -
31/05:20am 26.3 - - - - E 30 - 16 - - 1015.3 -
31/05:00am 25.7 - - - - SE 28 35 15 19 1015.3 - -
31/04:30am 26.6 - - - - E 33 39 18 21 1015.0 - -
31/04:20am 26.4 - - - - E 32 - 17 - - 1014.9 -
31/04:00am 26.6 - - - - SE 33 37 18 20 1014.9 - -
31/03:30am 26.8 - - - - SE 32 35 17 19 1015.0 - -
31/03:20am 26.6 - - - - SE 30 - 16 - - 1015.0 -
31/03:00am 26.7 - - - - SE 30 35 16 19 1015.1 - -
31/02:30am 26.8 - - - - ESE 32 35 17 19 1015.3 - -
31/02:20am 26.8 - - - - ESE 32 - 17 - - 1015.4 -
31/02:00am 26.7 - - - - ESE 30 35 16 19 1015.7 - -
31/01:30am 26.7 - - - - ESE 30 35 16 19 1016.1 - -
31/01:20am 26.8 - - - - ESE 30 - 16 - - 1016.1 -
31/01:00am 26.8 - - - - ESE 32 37 17 20 1016.4 - -
31/12:30am 26.8 - - - - ESE 33 37 18 20 1016.7 - -
31/12:20am 26.9 - - - - ESE 33 - 18 - - 1016.8 -
31/12:00am 26.9 - - - - ESE 32 37 17 20 1017.3 - -
 
Date/Time
EST
Temp
°C
App
Temp
°C
Dew
Point
Rel
Hum
%
Delta-T
°C
Wind Press
QNH
hPa
Press
MSL
hPa
Rain
since 9 am
mm
Dir
 
Spd
km/h
Gust
km/h
Spd
kts
Gust
kts
30/11:30pm 27.0 - - - - ESE 33 39 18 21 1017.5 - -
30/11:20pm 27.0 - - - - ESE 33 - 18 - - 1017.5 -
30/11:00pm 27.0 - - - - ESE 33 39 18 21 1017.7 - -
30/10:30pm 27.1 - - - - ESE 32 37 17 20 1017.9 - -
30/10:20pm 27.1 - - - - ESE 30 - 16 - - 1017.8 -
30/10:00pm 27.0 - - - - E 32 35 17 19 1018.0 - -
30/09:30pm 26.9 - - - - E 32 35 17 19 1018.0 - -
30/09:20pm 26.9 - - - - E 30 - 16 - - 1017.9 -
30/09:00pm 26.9 - - - - ESE 28 32 15 17 1018.1 - -
30/08:30pm 27.2 - - - - ESE 26 32 14 17 1017.9 - -
30/08:20pm 27.2 - - - - ESE 28 - 15 - - 1017.8 -
30/08:00pm 27.0 - - - - ESE 28 33 15 18 1017.7 - -
30/07:30pm 27.1 - - - - ESE 28 32 15 17 1017.4 - -
30/07:20pm 27.0 - - - - E 28 - 15 - - 1017.3 -
30/07:00pm 27.0 - - - - ESE 26 32 14 17 1017.2 - -
30/06:30pm 27.1 - - - - E 28 32 15 17 1016.9 - -
30/06:20pm 27.1 - - - - E 30 - 16 - - 1016.7 -
30/06:00pm 27.0 - - - - E 28 33 15 18 1016.6 - -
30/05:30pm 27.2 - - - - E 28 33 15 18 1016.4 - -
30/05:20pm 27.1 - - - - E 26 - 14 - - 1016.3 -
30/05:00pm 27.2 - - - - ESE 30 33 16 18 1016.2 - -
30/04:30pm 27.1 - - - - E 30 35 16 19 1016.0 - -
30/04:20pm 27.2 - - - - ESE 32 - 17 - - 1015.7 -
30/04:00pm 27.3 - - - - ESE 30 33 16 18 1015.6 - -
30/03:30pm 27.3 - - - - ESE 32 39 17 21 1015.3 - -
30/03:20pm 27.2 - - - - E 33 - 18 - - 1015.1 -
30/03:00pm 27.1 - - - - ESE 35 41 19 22 1015.2 - -
30/02:30pm 27.3 - - - - ESE 32 37 17 20 1015.2 - -
30/02:20pm 27.2 - - - - ESE 32 - 17 - - 1015.4 -
30/02:00pm 27.2 - - - - ESE 33 39 18 21 1015.7 - -
30/01:30pm 27.3 - - - - ESE 32 37 17 20 1016.2 - -
30/01:20pm 27.3 - - - - ESE 32 - 17 - - 1016.2 -
30/01:00pm 27.3 - - - - ESE 32 37 17 20 1016.3 - -
30/12:30pm 27.2 - - - - ESE 33 37 18 20 1016.5 - -
30/12:20pm 27.3 - - - - ESE 35 - 19 - - 1016.6 -
30/12:00pm 27.1 - - - - ESE 33 41 18 22 1016.9 - -
30/11:30am 27.2 - - - - ESE 33 41 18 22 1017.5 - -
30/11:20am 27.1 - - - - ESE 33 - 18 - - 1017.5 -
30/11:00am 27.1 - - - - ESE 35 41 19 22 1017.8 - -
30/10:30am 27.2 - - - - SE 37 41 20 22 1018.1 - -
30/10:20am 27.1 - - - - SE 35 - 19 - - 1018.2 -

Other Formats:

Comma delimited format used in spreadsheet applications
http://www.bom.gov.au/fwo/IDQ60801/IDQ60801.94371.axf

JavaScript Object Notation format (JSON) in row-major order
http://www.bom.gov.au/fwo/IDQ60801/IDQ60801.94371.json